sensor_id;sensor_type;location;lat;lon;timestamp;temperature;humidity
17146;DHT22;8688;54.444;18.444;2023-06-22T00:01:20;18.30;1.00
17146;DHT22;8688;54.444;18.444;2023-06-22T00:03:48;18.30;1.00
17146;DHT22;8688;54.444;18.444;2023-06-22T00:06:16;18.20;1.00
17146;DHT22;8688;54.444;18.444;2023-06-22T00:08:45;18.20;1.00
17146;DHT22;8688;54.444;18.444;2023-06-22T00:11:13;18.20;1.00
17146;DHT22;8688;54.444;18.444;2023-06-22T00:13:40;18.10;1.00
17146;DHT22;8688;54.444;18.444;2023-06-22T00:16:08;18.10;1.00
17146;DHT22;8688;54.444;18.444;2023-06-22T00:18:35;18.10;1.00
17146;DHT22;8688;54.444;18.444;2023-06-22T00:21:02;18.10;1.00
17146;DHT22;8688;54.444;18.444;2023-06-22T00:23:30;18.00;1.00
17146;DHT22;8688;54.444;18.444;2023-06-22T00:26:01;18.00;1.00
17146;DHT22;8688;54.444;18.444;2023-06-22T00:28:28;17.90;1.00
17146;DHT22;8688;54.444;18.444;2023-06-22T00:30:56;17.90;1.00
17146;DHT22;8688;54.444;18.444;2023-06-22T00:33:23;17.90;1.00
17146;DHT22;8688;54.444;18.444;2023-06-22T00:35:51;17.90;1.00
17146;DHT22;8688;54.444;18.444;2023-06-22T00:38:20;17.80;1.00
17146;DHT22;8688;54.444;18.444;2023-06-22T00:40:48;17.80;1.00
17146;DHT22;8688;54.444;18.444;2023-06-22T00:43:17;17.70;1.00
17146;DHT22;8688;54.444;18.444;2023-06-22T00:45:44;17.70;1.00
17146;DHT22;8688;54.444;18.444;2023-06-22T00:48:12;17.70;1.00
17146;DHT22;8688;54.444;18.444;2023-06-22T00:50:41;17.60;1.00
17146;DHT22;8688;54.444;18.444;2023-06-22T00:53:09;17.60;1.00
17146;DHT22;8688;54.444;18.444;2023-06-22T00:55:38;17.60;1.00
17146;DHT22;8688;54.444;18.444;2023-06-22T00:58:09;17.60;1.00
17146;DHT22;8688;54.444;18.444;2023-06-22T01:00:39;17.60;1.00
17146;DHT22;8688;54.444;18.444;2023-06-22T01:03:07;17.50;1.00
17146;DHT22;8688;54.444;18.444;2023-06-22T01:05:35;17.50;1.00
17146;DHT22;8688;54.444;18.444;2023-06-22T01:08:13;17.50;1.00
17146;DHT22;8688;54.444;18.444;2023-06-22T01:10:48;17.40;1.00
17146;DHT22;8688;54.444;18.444;2023-06-22T01:13:25;17.40;2.80
17146;DHT22;8688;54.444;18.444;2023-06-22T01:16:00;17.40;11.00
17146;DHT22;8688;54.444;18.444;2023-06-22T01:18:30;17.40;12.60
17146;DHT22;8688;54.444;18.444;2023-06-22T01:21:01;17.30;24.60
17146;DHT22;8688;54.444;18.444;2023-06-22T01:23:40;17.30;33.60
17146;DHT22;8688;54.444;18.444;2023-06-22T01:26:17;17.20;76.40
17146;DHT22;8688;54.444;18.444;2023-06-22T01:28:48;17.20;94.10
17146;DHT22;8688;54.444;18.444;2023-06-22T01:31:18;17.20;99.90
17146;DHT22;8688;54.444;18.444;2023-06-22T01:33:49;17.20;99.90
17146;DHT22;8688;54.444;18.444;2023-06-22T01:36:18;17.10;99.90
17146;DHT22;8688;54.444;18.444;2023-06-22T01:38:47;17.10;99.90
17146;DHT22;8688;54.444;18.444;2023-06-22T01:41:16;17.10;99.90
17146;DHT22;8688;54.444;18.444;2023-06-22T01:43:44;17.00;99.90
17146;DHT22;8688;54.444;18.444;2023-06-22T01:46:14;17.00;99.90
17146;DHT22;8688;54.444;18.444;2023-06-22T01:48:45;17.00;99.90
17146;DHT22;8688;54.444;18.444;2023-06-22T01:51:13;17.00;99.90
17146;DHT22;8688;54.444;18.444;2023-06-22T01:53:41;16.90;99.90
17146;DHT22;8688;54.444;18.444;2023-06-22T01:56:08;16.90;99.90
17146;DHT22;8688;54.444;18.444;2023-06-22T01:58:41;16.90;99.90
17146;DHT22;8688;54.444;18.444;2023-06-22T02:01:11;16.90;99.90
17146;DHT22;8688;54.444;18.444;2023-06-22T02:03:44;16.90;99.90
17146;DHT22;8688;54.444;18.444;2023-06-22T02:06:17;16.90;99.90
17146;DHT22;8688;54.444;18.444;2023-06-22T02:08:51;16.90;99.90
17146;DHT22;8688;54.444;18.444;2023-06-22T02:11:22;16.90;99.90
17146;DHT22;8688;54.444;18.444;2023-06-22T02:13:50;16.90;99.90
17146;DHT22;8688;54.444;18.444;2023-06-22T02:16:19;16.90;99.90
17146;DHT22;8688;54.444;18.444;2023-06-22T02:18:49;16.80;99.90
17146;DHT22;8688;54.444;18.444;2023-06-22T02:21:18;16.80;99.90
17146;DHT22;8688;54.444;18.444;2023-06-22T02:23:45;16.80;99.90
17146;DHT22;8688;54.444;18.444;2023-06-22T02:26:13;16.80;99.90
17146;DHT22;8688;54.444;18.444;2023-06-22T02:28:41;16.80;99.90
17146;DHT22;8688;54.444;18.444;2023-06-22T02:31:08;16.80;99.90
17146;DHT22;8688;54.444;18.444;2023-06-22T02:33:36;16.80;99.90
17146;DHT22;8688;54.444;18.444;2023-06-22T02:36:05;16.80;99.90
17146;DHT22;8688;54.444;18.444;2023-06-22T02:38:35;16.80;99.90
17146;DHT22;8688;54.444;18.444;2023-06-22T02:41:02;16.80;99.90
17146;DHT22;8688;54.444;18.444;2023-06-22T02:43:30;16.80;99.90
17146;DHT22;8688;54.444;18.444;2023-06-22T02:45:58;16.80;99.90
17146;DHT22;8688;54.444;18.444;2023-06-22T02:48:26;16.80;99.90
17146;DHT22;8688;54.444;18.444;2023-06-22T02:50:53;16.90;99.90
17146;DHT22;8688;54.444;18.444;2023-06-22T02:53:22;16.90;99.90
17146;DHT22;8688;54.444;18.444;2023-06-22T02:55:49;16.90;99.90
17146;DHT22;8688;54.444;18.444;2023-06-22T02:58:17;17.00;99.90
17146;DHT22;8688;54.444;18.444;2023-06-22T03:00:44;17.00;99.90
17146;DHT22;8688;54.444;18.444;2023-06-22T03:03:12;17.10;99.90
17146;DHT22;8688;54.444;18.444;2023-06-22T03:05:39;17.20;99.90
17146;DHT22;8688;54.444;18.444;2023-06-22T03:08:07;17.30;99.90
17146;DHT22;8688;54.444;18.444;2023-06-22T03:10:36;17.30;99.90
17146;DHT22;8688;54.444;18.444;2023-06-22T03:13:03;17.40;99.90
17146;DHT22;8688;54.444;18.444;2023-06-22T03:15:31;17.40;99.90
17146;DHT22;8688;54.444;18.444;2023-06-22T03:18:00;17.40;99.90
17146;DHT22;8688;54.444;18.444;2023-06-22T03:20:27;17.40;99.90
17146;DHT22;8688;54.444;18.444;2023-06-22T03:22:59;17.40;99.90
17146;DHT22;8688;54.444;18.444;2023-06-22T03:25:26;17.40;99.90
17146;DHT22;8688;54.444;18.444;2023-06-22T03:27:55;17.40;99.90
17146;DHT22;8688;54.444;18.444;2023-06-22T03:30:23;17.40;99.90
17146;DHT22;8688;54.444;18.444;2023-06-22T03:32:50;17.50;99.90
17146;DHT22;8688;54.444;18.444;2023-06-22T03:35:18;17.50;99.90
17146;DHT22;8688;54.444;18.444;2023-06-22T03:37:45;17.60;99.90
17146;DHT22;8688;54.444;18.444;2023-06-22T03:40:13;17.60;99.90
17146;DHT22;8688;54.444;18.444;2023-06-22T03:42:40;17.70;99.90
17146;DHT22;8688;54.444;18.444;2023-06-22T03:45:10;17.80;99.90
17146;DHT22;8688;54.444;18.444;2023-06-22T03:47:38;17.80;99.90
17146;DHT22;8688;54.444;18.444;2023-06-22T03:50:06;17.90;99.90
17146;DHT22;8688;54.444;18.444;2023-06-22T03:52:34;17.90;99.90
17146;DHT22;8688;54.444;18.444;2023-06-22T03:55:01;17.90;99.90
17146;DHT22;8688;54.444;18.444;2023-06-22T03:57:28;17.90;99.90
17146;DHT22;8688;54.444;18.444;2023-06-22T03:59:57;17.90;99.90
17146;DHT22;8688;54.444;18.444;2023-06-22T04:02:26;17.90;99.90
17146;DHT22;8688;54.444;18.444;2023-06-22T04:04:53;17.90;99.90
17146;DHT22;8688;54.444;18.444;2023-06-22T04:07:21;17.90;99.90
17146;DHT22;8688;54.444;18.444;2023-06-22T04:09:48;17.90;99.90
17146;DHT22;8688;54.444;18.444;2023-06-22T04:12:16;18.00;99.90
17146;DHT22;8688;54.444;18.444;2023-06-22T04:14:43;17.90;99.90
17146;DHT22;8688;54.444;18.444;2023-06-22T04:17:11;18.00;99.90
17146;DHT22;8688;54.444;18.444;2023-06-22T04:19:41;18.00;99.90
17146;DHT22;8688;54.444;18.444;2023-06-22T04:22:09;18.00;99.90
17146;DHT22;8688;54.444;18.444;2023-06-22T04:24:36;18.10;99.90
17146;DHT22;8688;54.444;18.444;2023-06-22T04:27:05;18.10;99.90
17146;DHT22;8688;54.444;18.444;2023-06-22T04:29:32;18.10;99.90
17146;DHT22;8688;54.444;18.444;2023-06-22T04:32:00;18.10;99.90
17146;DHT22;8688;54.444;18.444;2023-06-22T04:34:31;18.10;99.90
17146;DHT22;8688;54.444;18.444;2023-06-22T04:37:00;18.20;99.90
17146;DHT22;8688;54.444;18.444;2023-06-22T04:39:27;18.10;99.90
17146;DHT22;8688;54.444;18.444;2023-06-22T04:41:55;18.10;99.90
17146;DHT22;8688;54.444;18.444;2023-06-22T04:44:26;18.10;99.90
17146;DHT22;8688;54.444;18.444;2023-06-22T04:46:57;18.10;99.90
17146;DHT22;8688;54.444;18.444;2023-06-22T04:49:29;18.10;99.90
17146;DHT22;8688;54.444;18.444;2023-06-22T04:52:00;18.20;99.90
17146;DHT22;8688;54.444;18.444;2023-06-22T04:54:28;18.30;99.90
17146;DHT22;8688;54.444;18.444;2023-06-22T04:56:58;18.30;99.90
17146;DHT22;8688;54.444;18.444;2023-06-22T04:59:28;18.20;99.90
17146;DHT22;8688;54.444;18.444;2023-06-22T05:01:56;18.20;99.90
17146;DHT22;8688;54.444;18.444;2023-06-22T05:04:24;18.30;99.90
17146;DHT22;8688;54.444;18.444;2023-06-22T05:06:52;18.30;99.90
17146;DHT22;8688;54.444;18.444;2023-06-22T05:09:21;18.40;99.90
17146;DHT22;8688;54.444;18.444;2023-06-22T05:11:49;18.50;99.90
17146;DHT22;8688;54.444;18.444;2023-06-22T05:14:17;18.60;99.90
17146;DHT22;8688;54.444;18.444;2023-06-22T05:16:45;18.70;42.50
17146;DHT22;8688;54.444;18.444;2023-06-22T05:19:13;18.70;24.90
17146;DHT22;8688;54.444;18.444;2023-06-22T05:21:40;18.70;4.00
17146;DHT22;8688;54.444;18.444;2023-06-22T05:24:08;18.70;1.00
17146;DHT22;8688;54.444;18.444;2023-06-22T05:26:37;18.90;1.00
17146;DHT22;8688;54.444;18.444;2023-06-22T05:29:05;18.90;1.00
17146;DHT22;8688;54.444;18.444;2023-06-22T05:31:32;18.90;99.90
17146;DHT22;8688;54.444;18.444;2023-06-22T05:34:00;18.90;99.90
17146;DHT22;8688;54.444;18.444;2023-06-22T05:36:27;18.80;99.90
17146;DHT22;8688;54.444;18.444;2023-06-22T05:38:57;18.80;1.00
17146;DHT22;8688;54.444;18.444;2023-06-22T05:41:24;18.80;1.00
17146;DHT22;8688;54.444;18.444;2023-06-22T05:43:54;18.80;1.00
17146;DHT22;8688;54.444;18.444;2023-06-22T05:46:22;18.80;1.00
17146;DHT22;8688;54.444;18.444;2023-06-22T05:48:50;18.90;1.00
17146;DHT22;8688;54.444;18.444;2023-06-22T05:51:17;18.90;99.90
17146;DHT22;8688;54.444;18.444;2023-06-22T05:53:45;19.00;99.90
17146;DHT22;8688;54.444;18.444;2023-06-22T05:56:15;19.00;99.90
17146;DHT22;8688;54.444;18.444;2023-06-22T05:58:43;19.00;99.90
17146;DHT22;8688;54.444;18.444;2023-06-22T06:01:12;19.10;99.90
17146;DHT22;8688;54.444;18.444;2023-06-22T06:03:41;19.10;99.90
17146;DHT22;8688;54.444;18.444;2023-06-22T06:06:10;19.10;99.90
17146;DHT22;8688;54.444;18.444;2023-06-22T06:08:38;19.00;99.90
17146;DHT22;8688;54.444;18.444;2023-06-22T06:11:06;18.90;99.90
17146;DHT22;8688;54.444;18.444;2023-06-22T06:13:33;18.90;99.90
17146;DHT22;8688;54.444;18.444;2023-06-22T06:16:01;19.00;99.90
17146;DHT22;8688;54.444;18.444;2023-06-22T06:18:30;19.00;99.90
17146;DHT22;8688;54.444;18.444;2023-06-22T06:20:57;19.00;1.00
17146;DHT22;8688;54.444;18.444;2023-06-22T06:23:25;19.10;1.00
17146;DHT22;8688;54.444;18.444;2023-06-22T06:25:52;19.10;1.00
17146;DHT22;8688;54.444;18.444;2023-06-22T06:28:19;19.30;1.00
17146;DHT22;8688;54.444;18.444;2023-06-22T06:30:47;19.30;1.00
17146;DHT22;8688;54.444;18.444;2023-06-22T06:33:14;19.40;1.00
17146;DHT22;8688;54.444;18.444;2023-06-22T06:35:43;19.50;1.00
17146;DHT22;8688;54.444;18.444;2023-06-22T06:38:11;19.50;1.00
17146;DHT22;8688;54.444;18.444;2023-06-22T06:40:38;19.60;1.00
17146;DHT22;8688;54.444;18.444;2023-06-22T06:43:06;19.80;99.90
17146;DHT22;8688;54.444;18.444;2023-06-22T06:45:34;19.90;99.90
17146;DHT22;8688;54.444;18.444;2023-06-22T06:48:01;20.00;1.00
17146;DHT22;8688;54.444;18.444;2023-06-22T06:50:29;20.10;1.00
17146;DHT22;8688;54.444;18.444;2023-06-22T06:52:58;20.10;99.90
17146;DHT22;8688;54.444;18.444;2023-06-22T06:55:25;20.10;99.90
17146;DHT22;8688;54.444;18.444;2023-06-22T06:57:56;20.00;99.90
17146;DHT22;8688;54.444;18.444;2023-06-22T07:00:23;20.00;99.90
17146;DHT22;8688;54.444;18.444;2023-06-22T07:02:52;20.00;99.90
17146;DHT22;8688;54.444;18.444;2023-06-22T07:05:19;20.00;1.00
17146;DHT22;8688;54.444;18.444;2023-06-22T07:07:47;20.00;1.00
17146;DHT22;8688;54.444;18.444;2023-06-22T07:10:17;20.20;1.00
17146;DHT22;8688;54.444;18.444;2023-06-22T07:12:45;20.20;1.00
17146;DHT22;8688;54.444;18.444;2023-06-22T07:15:13;20.30;1.00
17146;DHT22;8688;54.444;18.444;2023-06-22T07:17:40;20.40;1.00
17146;DHT22;8688;54.444;18.444;2023-06-22T07:20:09;20.50;1.00
17146;DHT22;8688;54.444;18.444;2023-06-22T07:22:38;20.60;1.00
17146;DHT22;8688;54.444;18.444;2023-06-22T07:25:07;20.60;1.00
17146;DHT22;8688;54.444;18.444;2023-06-22T07:27:38;20.70;1.00
17146;DHT22;8688;54.444;18.444;2023-06-22T07:30:09;20.70;1.00
17146;DHT22;8688;54.444;18.444;2023-06-22T07:32:37;20.70;1.00
17146;DHT22;8688;54.444;18.444;2023-06-22T07:35:05;20.70;1.00
17146;DHT22;8688;54.444;18.444;2023-06-22T07:37:33;20.70;1.00
17146;DHT22;8688;54.444;18.444;2023-06-22T07:40:01;20.70;1.00
17146;DHT22;8688;54.444;18.444;2023-06-22T07:42:32;20.80;1.00
17146;DHT22;8688;54.444;18.444;2023-06-22T07:45:02;20.80;1.00
17146;DHT22;8688;54.444;18.444;2023-06-22T07:47:30;20.80;1.00
17146;DHT22;8688;54.444;18.444;2023-06-22T07:50:01;20.90;99.90
17146;DHT22;8688;54.444;18.444;2023-06-22T07:52:29;20.90;1.00
17146;DHT22;8688;54.444;18.444;2023-06-22T07:54:57;21.00;95.60
17146;DHT22;8688;54.444;18.444;2023-06-22T07:57:24;21.00;99.90
17146;DHT22;8688;54.444;18.444;2023-06-22T07:59:58;21.10;99.90
17146;DHT22;8688;54.444;18.444;2023-06-22T08:02:27;21.10;1.00
17146;DHT22;8688;54.444;18.444;2023-06-22T08:04:54;21.30;1.00
17146;DHT22;8688;54.444;18.444;2023-06-22T08:07:22;21.40;1.00
17146;DHT22;8688;54.444;18.444;2023-06-22T08:09:49;21.40;53.40
17146;DHT22;8688;54.444;18.444;2023-06-22T08:12:17;21.30;1.00
17146;DHT22;8688;54.444;18.444;2023-06-22T08:14:44;21.20;1.00
17146;DHT22;8688;54.444;18.444;2023-06-22T08:17:12;21.10;1.00
17146;DHT22;8688;54.444;18.444;2023-06-22T08:19:41;21.10;1.00
17146;DHT22;8688;54.444;18.444;2023-06-22T08:22:09;21.20;98.40
17146;DHT22;8688;54.444;18.444;2023-06-22T08:24:36;21.30;99.90
17146;DHT22;8688;54.444;18.444;2023-06-22T08:27:07;21.30;1.00
17146;DHT22;8688;54.444;18.444;2023-06-22T08:29:35;21.40;99.90
17146;DHT22;8688;54.444;18.444;2023-06-22T08:32:03;21.50;99.90
17146;DHT22;8688;54.444;18.444;2023-06-22T08:34:31;21.50;99.90
17146;DHT22;8688;54.444;18.444;2023-06-22T08:37:00;21.50;99.90
17146;DHT22;8688;54.444;18.444;2023-06-22T08:39:32;21.60;69.20
17146;DHT22;8688;54.444;18.444;2023-06-22T08:41:59;21.60;1.00
17146;DHT22;8688;54.444;18.444;2023-06-22T08:44:27;21.50;99.90
17146;DHT22;8688;54.444;18.444;2023-06-22T08:46:54;21.60;83.30
17146;DHT22;8688;54.444;18.444;2023-06-22T08:49:22;21.60;99.90
17146;DHT22;8688;54.444;18.444;2023-06-22T08:51:49;21.60;1.00
17146;DHT22;8688;54.444;18.444;2023-06-22T08:54:20;21.70;1.00
17146;DHT22;8688;54.444;18.444;2023-06-22T08:56:48;21.80;1.00
17146;DHT22;8688;54.444;18.444;2023-06-22T08:59:15;22.00;1.00
17146;DHT22;8688;54.444;18.444;2023-06-22T09:01:43;22.10;1.00
17146;DHT22;8688;54.444;18.444;2023-06-22T09:04:14;22.20;99.90
17146;DHT22;8688;54.444;18.444;2023-06-22T09:06:42;22.20;1.00
17146;DHT22;8688;54.444;18.444;2023-06-22T09:09:12;22.20;1.00
17146;DHT22;8688;54.444;18.444;2023-06-22T09:11:41;22.10;1.00
17146;DHT22;8688;54.444;18.444;2023-06-22T09:14:09;22.20;1.00
17146;DHT22;8688;54.444;18.444;2023-06-22T09:16:37;22.30;1.00
17146;DHT22;8688;54.444;18.444;2023-06-22T09:19:04;22.30;1.00
17146;DHT22;8688;54.444;18.444;2023-06-22T09:21:32;22.40;1.00
17146;DHT22;8688;54.444;18.444;2023-06-22T09:23:59;22.40;1.00
17146;DHT22;8688;54.444;18.444;2023-06-22T09:26:27;22.50;1.00
17146;DHT22;8688;54.444;18.444;2023-06-22T09:28:56;22.60;1.00
17146;DHT22;8688;54.444;18.444;2023-06-22T09:31:23;22.50;24.60
17146;DHT22;8688;54.444;18.444;2023-06-22T09:33:52;22.50;1.00
17146;DHT22;8688;54.444;18.444;2023-06-22T09:36:21;22.50;1.00
17146;DHT22;8688;54.444;18.444;2023-06-22T09:38:49;22.60;1.00
17146;DHT22;8688;54.444;18.444;2023-06-22T09:41:21;22.70;1.00
17146;DHT22;8688;54.444;18.444;2023-06-22T09:43:48;22.80;46.30
17146;DHT22;8688;54.444;18.444;2023-06-22T09:46:18;22.90;99.90
17146;DHT22;8688;54.444;18.444;2023-06-22T09:48:48;22.90;91.50
17146;DHT22;8688;54.444;18.444;2023-06-22T09:51:15;22.70;99.90
17146;DHT22;8688;54.444;18.444;2023-06-22T09:53:43;22.80;99.90
17146;DHT22;8688;54.444;18.444;2023-06-22T09:56:17;22.90;99.90
17146;DHT22;8688;54.444;18.444;2023-06-22T09:58:45;22.90;99.90
17146;DHT22;8688;54.444;18.444;2023-06-22T10:01:17;22.90;99.90
17146;DHT22;8688;54.444;18.444;2023-06-22T10:03:47;22.90;31.70
17146;DHT22;8688;54.444;18.444;2023-06-22T10:06:15;23.10;99.90
17146;DHT22;8688;54.444;18.444;2023-06-22T10:08:42;23.20;99.90
17146;DHT22;8688;54.444;18.444;2023-06-22T10:11:10;23.20;99.90
17146;DHT22;8688;54.444;18.444;2023-06-22T10:13:37;23.00;99.90
17146;DHT22;8688;54.444;18.444;2023-06-22T10:16:05;22.90;99.90
17146;DHT22;8688;54.444;18.444;2023-06-22T10:18:34;23.00;99.90
17146;DHT22;8688;54.444;18.444;2023-06-22T10:21:02;23.10;99.90
17146;DHT22;8688;54.444;18.444;2023-06-22T10:23:29;23.20;1.00
17146;DHT22;8688;54.444;18.444;2023-06-22T10:25:57;23.30;99.90
17146;DHT22;8688;54.444;18.444;2023-06-22T10:28:24;23.40;99.90
17146;DHT22;8688;54.444;18.444;2023-06-22T10:30:52;23.50;99.90
17146;DHT22;8688;54.444;18.444;2023-06-22T10:33:19;23.60;99.90
17146;DHT22;8688;54.444;18.444;2023-06-22T10:35:48;23.70;99.90
17146;DHT22;8688;54.444;18.444;2023-06-22T10:38:16;23.70;99.90
17146;DHT22;8688;54.444;18.444;2023-06-22T10:40:43;23.70;99.90
17146;DHT22;8688;54.444;18.444;2023-06-22T10:43:11;23.90;99.90
17146;DHT22;8688;54.444;18.444;2023-06-22T10:45:38;24.00;99.90
17146;DHT22;8688;54.444;18.444;2023-06-22T10:48:06;23.90;99.90
17146;DHT22;8688;54.444;18.444;2023-06-22T10:50:33;23.80;99.90
17146;DHT22;8688;54.444;18.444;2023-06-22T10:53:02;23.80;99.90
17146;DHT22;8688;54.444;18.444;2023-06-22T10:55:30;23.80;99.90
17146;DHT22;8688;54.444;18.444;2023-06-22T10:57:57;23.90;1.00
17146;DHT22;8688;54.444;18.444;2023-06-22T11:00:24;24.00;99.90
17146;DHT22;8688;54.444;18.444;2023-06-22T11:02:52;24.00;1.00
17146;DHT22;8688;54.444;18.444;2023-06-22T11:05:20;24.10;99.90
17146;DHT22;8688;54.444;18.444;2023-06-22T11:07:48;24.10;1.00
17146;DHT22;8688;54.444;18.444;2023-06-22T11:10:16;24.20;1.00
17146;DHT22;8688;54.444;18.444;2023-06-22T11:12:44;24.20;1.00
17146;DHT22;8688;54.444;18.444;2023-06-22T11:15:12;24.30;1.00
17146;DHT22;8688;54.444;18.444;2023-06-22T11:17:39;24.40;1.00
17146;DHT22;8688;54.444;18.444;2023-06-22T11:20:07;24.50;99.90
17146;DHT22;8688;54.444;18.444;2023-06-22T11:22:37;24.50;1.00
17146;DHT22;8688;54.444;18.444;2023-06-22T11:25:05;24.40;1.00
17146;DHT22;8688;54.444;18.444;2023-06-22T11:27:34;24.50;1.00
17146;DHT22;8688;54.444;18.444;2023-06-22T11:30:02;24.50;1.00
17146;DHT22;8688;54.444;18.444;2023-06-22T11:32:29;24.40;1.00
17146;DHT22;8688;54.444;18.444;2023-06-22T11:34:57;24.50;1.00
17146;DHT22;8688;54.444;18.444;2023-06-22T11:37:24;24.60;1.00
17146;DHT22;8688;54.444;18.444;2023-06-22T11:39:52;24.80;1.00
17146;DHT22;8688;54.444;18.444;2023-06-22T11:42:20;24.80;1.00
17146;DHT22;8688;54.444;18.444;2023-06-22T11:44:51;24.80;1.00
17146;DHT22;8688;54.444;18.444;2023-06-22T11:47:18;25.00;1.00
17146;DHT22;8688;54.444;18.444;2023-06-22T11:49:46;25.10;1.00
17146;DHT22;8688;54.444;18.444;2023-06-22T11:52:14;25.10;1.00
17146;DHT22;8688;54.444;18.444;2023-06-22T11:54:43;25.10;1.00
17146;DHT22;8688;54.444;18.444;2023-06-22T11:57:11;25.10;1.00
17146;DHT22;8688;54.444;18.444;2023-06-22T11:59:39;25.10;1.00
17146;DHT22;8688;54.444;18.444;2023-06-22T12:02:07;25.10;1.00
17146;DHT22;8688;54.444;18.444;2023-06-22T12:04:35;25.20;1.00
17146;DHT22;8688;54.444;18.444;2023-06-22T12:07:03;25.30;1.00
17146;DHT22;8688;54.444;18.444;2023-06-22T12:09:31;25.30;1.00
17146;DHT22;8688;54.444;18.444;2023-06-22T12:11:59;25.40;1.00
17146;DHT22;8688;54.444;18.444;2023-06-22T12:14:26;25.50;1.00
17146;DHT22;8688;54.444;18.444;2023-06-22T12:16:54;25.50;1.00
17146;DHT22;8688;54.444;18.444;2023-06-22T12:19:23;25.70;1.00
17146;DHT22;8688;54.444;18.444;2023-06-22T12:21:50;25.80;1.00
17146;DHT22;8688;54.444;18.444;2023-06-22T12:24:18;25.90;1.00
17146;DHT22;8688;54.444;18.444;2023-06-22T12:26:45;26.10;1.00
17146;DHT22;8688;54.444;18.444;2023-06-22T12:29:13;26.00;1.00
17146;DHT22;8688;54.444;18.444;2023-06-22T12:31:41;26.00;1.00
17146;DHT22;8688;54.444;18.444;2023-06-22T12:34:08;26.10;1.00
17146;DHT22;8688;54.444;18.444;2023-06-22T12:36:37;26.20;1.00
17146;DHT22;8688;54.444;18.444;2023-06-22T12:39:04;26.00;1.00
17146;DHT22;8688;54.444;18.444;2023-06-22T12:41:32;26.00;1.00
17146;DHT22;8688;54.444;18.444;2023-06-22T12:43:59;26.00;1.00
17146;DHT22;8688;54.444;18.444;2023-06-22T12:46:27;26.10;1.00
17146;DHT22;8688;54.444;18.444;2023-06-22T12:48:56;26.10;1.00
17146;DHT22;8688;54.444;18.444;2023-06-22T12:51:23;26.20;1.00
17146;DHT22;8688;54.444;18.444;2023-06-22T12:53:52;26.10;1.00
17146;DHT22;8688;54.444;18.444;2023-06-22T12:56:20;26.20;1.00
17146;DHT22;8688;54.444;18.444;2023-06-22T12:58:48;26.30;1.00
17146;DHT22;8688;54.444;18.444;2023-06-22T13:01:15;26.30;1.00
17146;DHT22;8688;54.444;18.444;2023-06-22T13:03:44;26.50;1.00
17146;DHT22;8688;54.444;18.444;2023-06-22T13:06:11;26.70;1.00
17146;DHT22;8688;54.444;18.444;2023-06-22T13:08:38;26.70;1.00
17146;DHT22;8688;54.444;18.444;2023-06-22T13:11:07;26.90;1.00
17146;DHT22;8688;54.444;18.444;2023-06-22T13:13:35;27.00;1.00
17146;DHT22;8688;54.444;18.444;2023-06-22T13:16:02;26.90;1.00
17146;DHT22;8688;54.444;18.444;2023-06-22T13:18:30;26.90;1.00
17146;DHT22;8688;54.444;18.444;2023-06-22T13:20:57;26.50;1.00
17146;DHT22;8688;54.444;18.444;2023-06-22T13:23:25;26.70;1.00
17146;DHT22;8688;54.444;18.444;2023-06-22T13:25:53;27.10;1.00
17146;DHT22;8688;54.444;18.444;2023-06-22T13:28:22;27.20;1.00
17146;DHT22;8688;54.444;18.444;2023-06-22T13:30:49;27.10;1.00
17146;DHT22;8688;54.444;18.444;2023-06-22T13:33:17;26.90;1.00
17146;DHT22;8688;54.444;18.444;2023-06-22T13:35:44;26.80;1.00
17146;DHT22;8688;54.444;18.444;2023-06-22T13:38:12;26.90;1.00
17146;DHT22;8688;54.444;18.444;2023-06-22T13:40:39;27.00;1.00
17146;DHT22;8688;54.444;18.444;2023-06-22T13:43:07;27.00;1.00
17146;DHT22;8688;54.444;18.444;2023-06-22T13:45:36;26.70;1.00
17146;DHT22;8688;54.444;18.444;2023-06-22T13:48:03;26.60;1.00
17146;DHT22;8688;54.444;18.444;2023-06-22T13:50:34;26.50;1.00
17146;DHT22;8688;54.444;18.444;2023-06-22T13:53:02;27.10;1.00
17146;DHT22;8688;54.444;18.444;2023-06-22T13:55:30;27.40;1.00
17146;DHT22;8688;54.444;18.444;2023-06-22T13:57:57;27.50;1.00
17146;DHT22;8688;54.444;18.444;2023-06-22T14:00:25;27.60;1.00
17146;DHT22;8688;54.444;18.444;2023-06-22T14:02:55;27.40;1.00
17146;DHT22;8688;54.444;18.444;2023-06-22T14:05:22;27.30;1.00
17146;DHT22;8688;54.444;18.444;2023-06-22T14:07:50;27.40;1.00
17146;DHT22;8688;54.444;18.444;2023-06-22T14:10:18;27.10;1.00
17146;DHT22;8688;54.444;18.444;2023-06-22T14:12:46;27.10;1.00
17146;DHT22;8688;54.444;18.444;2023-06-22T14:15:13;27.20;1.00
17146;DHT22;8688;54.444;18.444;2023-06-22T14:17:41;27.60;1.00
17146;DHT22;8688;54.444;18.444;2023-06-22T14:20:11;27.90;1.00
17146;DHT22;8688;54.444;18.444;2023-06-22T14:22:38;28.30;1.00
17146;DHT22;8688;54.444;18.444;2023-06-22T14:25:07;28.40;1.00
17146;DHT22;8688;54.444;18.444;2023-06-22T14:27:34;28.40;1.00
17146;DHT22;8688;54.444;18.444;2023-06-22T14:30:02;28.40;1.00
17146;DHT22;8688;54.444;18.444;2023-06-22T14:32:29;28.40;1.00
17146;DHT22;8688;54.444;18.444;2023-06-22T14:34:57;28.40;1.00
17146;DHT22;8688;54.444;18.444;2023-06-22T14:37:26;28.50;1.00
17146;DHT22;8688;54.444;18.444;2023-06-22T14:39:53;28.40;1.00
17146;DHT22;8688;54.444;18.444;2023-06-22T14:42:21;28.30;1.00
17146;DHT22;8688;54.444;18.444;2023-06-22T14:44:48;28.30;1.00
17146;DHT22;8688;54.444;18.444;2023-06-22T14:47:16;27.50;1.00
17146;DHT22;8688;54.444;18.444;2023-06-22T14:49:44;27.40;1.00
17146;DHT22;8688;54.444;18.444;2023-06-22T14:52:11;27.60;1.00
17146;DHT22;8688;54.444;18.444;2023-06-22T14:54:41;27.80;1.00
17146;DHT22;8688;54.444;18.444;2023-06-22T14:57:08;28.20;1.00
17146;DHT22;8688;54.444;18.444;2023-06-22T14:59:36;28.30;1.00
17146;DHT22;8688;54.444;18.444;2023-06-22T15:02:03;28.10;1.00
17146;DHT22;8688;54.444;18.444;2023-06-22T15:04:31;28.20;1.00
17146;DHT22;8688;54.444;18.444;2023-06-22T15:07:00;28.10;48.10
17146;DHT22;8688;54.444;18.444;2023-06-22T15:09:28;28.40;1.00
17146;DHT22;8688;54.444;18.444;2023-06-22T15:11:57;28.60;42.90
17146;DHT22;8688;54.444;18.444;2023-06-22T15:14:27;28.80;8.60
17146;DHT22;8688;54.444;18.444;2023-06-22T15:16:55;29.20;48.40
17146;DHT22;8688;54.444;18.444;2023-06-22T15:19:23;29.30;21.30
17146;DHT22;8688;54.444;18.444;2023-06-22T15:21:50;29.20;47.30
17146;DHT22;8688;54.444;18.444;2023-06-22T15:24:18;29.30;96.00
17146;DHT22;8688;54.444;18.444;2023-06-22T15:26:45;29.30;87.40
17146;DHT22;8688;54.444;18.444;2023-06-22T15:29:15;28.90;99.90
17146;DHT22;8688;54.444;18.444;2023-06-22T15:31:42;28.90;18.00
17146;DHT22;8688;54.444;18.444;2023-06-22T15:34:10;29.30;99.90
17146;DHT22;8688;54.444;18.444;2023-06-22T15:36:40;28.90;74.70
17146;DHT22;8688;54.444;18.444;2023-06-22T15:39:08;28.40;90.10
17146;DHT22;8688;54.444;18.444;2023-06-22T15:41:39;28.60;76.80
17146;DHT22;8688;54.444;18.444;2023-06-22T15:44:07;29.00;70.60